ADDS TAF Board (Experimental) INFO Settings
IDs:

KMCI - Kansas City Intl, MO, US

Issued at 0817 UTC 03 Jul 2015
Updated at: 1040 UTC 03 Jul 2015
Time1000Z 03/11Z 03/12Z 03/13Z 03/14Z 03/15Z 03/16Z 03/17Z 03/18Z 03/19Z 03/20Z 03/21Z 03/22Z 03/23Z
Type OBS PRVL PRVL PRVL PRVL PRVL PRVL PRVL PRVL PRVL PRVL PRVL PRVL PRVL
VIS 10 6 6 >6 >6 >6 >6 >6 >6 >6 >6 >6 >6 >6
CIG 29 45 45 -- -- -- -- -- -- -- -- -- -- --
Cover OVC BKN BKN SCT SCT SCT SCT SCT SCT SCT SCT SCT SCT SCT
FltCat MVFR VFR VFR VFR VFR VFR VFR VFR VFR VFR VFR VFR VFR VFR
WX -- BR BR -- -- -- -- -- -- -- -- -- -- --
WDir 70 70 70 70 70 70 70 70 70 70 70 70 70 70
WSpd 8 8 8 7 7 7 7 7 7 7 7 7 7 7
WGst -- -- -- -- -- -- -- -- -- -- -- -- -- --
R01/19
XWnd -7 -7 -7 -6 -6 -6 -6 -6 -6 -6 -6 -6 -6 -6
HWnd 4 4 4 4 4 4 4 4 4 4 4 4 4 4
R09/27
XWnd 4 4 4 3 3 3 3 3 3 3 3 3 3 3
HWnd 7 7 7 6 6 6 6 6 6 6 6 6 6 6

NOTE: TEMPO conditions in [brackets]. Keep in mind TEMPO conditions might be better (lower impact) than prevailing conditions.

Raw TAF
KMCI 030817Z 0308/0406 07008KT 6SM BR SCT025 BKN045
  TEMPO 0308/0311 5SM BR OVC025
  FM031300 07007KT P6SM SCT030


Raw METAR
KMCI 031000Z 07008KT 10SM BKN029 OVC044 18/17 A2993 RMK AO2 T01830167 $
KMCI 030953Z 07008KT 10SM SCT025 BKN044 BKN050 18/17 A2993 RMK AO2 SLP126 T01830167 $
KMCI 030853Z 06007KT 10SM SCT025 BKN044 BKN050 19/17 A2993 RMK AO2 SLP126 T01890172 56008 $
KMCI 030753Z 06007KT 10SM SCT025 SCT044 BKN050 19/17 A2993 RMK AO2 SLP127 T01890172 $
KMCI 030739Z 08007KT 10SM SCT027 BKN044 19/17 A2993 RMK AO2 T01890172 $

METAR Board
Radar Display
Forecast Discussion

TAF Board Legend

Potential Impact
Threat None Slight Moderate High
Visibility (sm) ≥5.1 5.1>X≥3 3>X≥1 <1
Ceiling (100 ft) ≥30.1 30.1>X≥10 10>X≥5 <5
Wind Speed (kt) <10 10≤X<20 20≤X<30 ≥30
Wind Gust (kt) <15 15≤X<25 25≤X<35 ≥35
Weather No Wx Reported VCTS,-TS,-FZRA,SN TS,FZRA +TS,+FZRA,+SN